createdAt,value
2023-02-06T00:00:10.523Z,0.00
2023-02-06T00:01:10.506Z,0.00
2023-02-06T00:02:10.579Z,0.00
2023-02-06T00:03:10.467Z,0.00
2023-02-06T00:04:10.522Z,0.00
2023-02-06T00:05:10.476Z,0.00
2023-02-06T00:06:10.454Z,0.00
2023-02-06T00:07:10.452Z,0.00
2023-02-06T00:08:10.449Z,0.00
2023-02-06T00:09:10.458Z,0.00
2023-02-06T00:10:10.413Z,0.00
2023-02-06T00:11:10.418Z,0.00
2023-02-06T00:12:10.398Z,0.00
2023-02-06T00:13:10.381Z,0.00
2023-02-06T00:14:10.396Z,0.00
2023-02-06T00:15:10.363Z,0.00
2023-02-06T00:16:10.358Z,0.00
2023-02-06T00:17:10.359Z,0.00
2023-02-06T00:18:10.345Z,0.00
2023-02-06T00:19:10.327Z,0.00
2023-02-06T00:20:10.341Z,0.00
2023-02-06T00:21:10.281Z,0.00
2023-02-06T00:22:10.300Z,0.00
2023-02-06T00:23:10.294Z,0.00
2023-02-06T00:24:10.288Z,0.00
2023-02-06T00:25:10.340Z,0.00
2023-02-06T00:26:10.257Z,0.00
2023-02-06T00:27:10.236Z,0.00
2023-02-06T00:28:10.221Z,0.00
2023-02-06T00:29:10.260Z,0.00
2023-02-06T00:30:10.264Z,0.00
2023-02-06T00:31:10.274Z,0.00
2023-02-06T00:32:10.168Z,0.00
2023-02-06T00:33:10.212Z,0.00
2023-02-06T00:34:10.162Z,0.00
2023-02-06T00:35:10.180Z,0.00
2023-02-06T00:36:10.178Z,0.00
2023-02-06T00:37:10.152Z,0.00
2023-02-06T00:38:10.130Z,0.00
2023-02-06T00:39:10.190Z,0.00
2023-02-06T00:40:10.168Z,0.00
2023-02-06T00:41:10.123Z,0.00
2023-02-06T00:42:10.121Z,0.00
2023-02-06T00:43:10.080Z,0.00
2023-02-06T00:44:10.074Z,0.00
2023-02-06T00:45:10.103Z,0.00
2023-02-06T00:46:10.157Z,0.00
2023-02-06T00:47:10.044Z,0.00
2023-02-06T00:48:10.033Z,0.00
2023-02-06T00:49:10.034Z,0.00
2023-02-06T00:50:10.042Z,0.00
2023-02-06T00:51:10.032Z,0.00
2023-02-06T00:52:10.018Z,0.00
2023-02-06T00:53:09.987Z,0.00
2023-02-06T00:54:09.986Z,0.00
2023-02-06T00:55:09.999Z,0.00
2023-02-06T00:56:09.978Z,0.00
2023-02-06T00:57:09.980Z,0.00
2023-02-06T00:58:09.935Z,0.00
2023-02-06T00:59:09.933Z,0.00
2023-02-06T01:00:09.939Z,0.00
2023-02-06T01:01:09.905Z,0.00
2023-02-06T01:02:09.901Z,0.00
2023-02-06T01:03:09.954Z,0.00
2023-02-06T01:04:09.868Z,0.00
2023-02-06T01:05:09.883Z,0.00
2023-02-06T01:06:09.866Z,0.00
2023-02-06T01:07:09.833Z,0.00
2023-02-06T01:08:09.858Z,0.00
2023-02-06T01:09:09.842Z,0.00
2023-02-06T01:10:09.872Z,0.00
2023-02-06T01:11:09.841Z,0.00
2023-02-06T01:12:09.800Z,0.00
2023-02-06T01:13:09.770Z,0.00
2023-02-06T01:14:09.772Z,0.00
2023-02-06T01:15:09.851Z,0.00
2023-02-06T01:16:09.814Z,0.00
2023-02-06T01:17:09.768Z,0.00
2023-02-06T01:18:09.734Z,0.00
2023-02-06T01:19:09.748Z,0.00
2023-02-06T01:20:09.750Z,0.00
2023-02-06T01:21:09.739Z,0.00
2023-02-06T01:22:09.686Z,0.00
2023-02-06T01:23:09.710Z,0.00
2023-02-06T01:24:09.697Z,0.00
2023-02-06T01:25:09.681Z,0.00
2023-02-06T01:26:09.650Z,0.00
2023-02-06T01:27:09.667Z,0.00
2023-02-06T01:28:09.722Z,0.00
2023-02-06T01:29:09.637Z,0.00
2023-02-06T01:30:09.664Z,0.00
2023-02-06T01:31:09.880Z,0.00
2023-02-06T01:32:09.602Z,0.00
2023-02-06T01:33:09.609Z,0.00
2023-02-06T01:34:09.638Z,0.00
2023-02-06T01:35:09.638Z,0.00
2023-02-06T01:37:02.729Z,0.00
2023-02-06T01:38:03.047Z,0.00
2023-02-06T01:39:03.054Z,0.00
2023-02-06T01:40:02.985Z,0.00
2023-02-06T01:41:02.992Z,0.00
2023-02-06T01:42:02.986Z,0.00
2023-02-06T01:43:03.004Z,0.00
2023-02-06T01:44:02.978Z,0.00
2023-02-06T01:45:02.956Z,0.00
2023-02-06T01:46:02.947Z,0.00
2023-02-06T01:47:02.919Z,0.00
2023-02-06T01:48:02.989Z,0.00
2023-02-06T01:49:02.935Z,0.00
2023-02-06T01:50:02.906Z,0.00
2023-02-06T01:51:02.918Z,0.00
2023-02-06T01:52:02.919Z,0.00
2023-02-06T01:53:02.863Z,0.00
2023-02-06T01:54:02.848Z,0.00
2023-02-06T01:55:02.867Z,0.00
2023-02-06T01:56:02.855Z,0.00
2023-02-06T01:57:02.851Z,0.00
2023-02-06T01:58:02.828Z,0.00
2023-02-06T01:59:02.861Z,0.00
2023-02-06T02:00:02.808Z,0.00
2023-02-06T02:01:02.865Z,0.00
2023-02-06T02:02:02.831Z,0.00
2023-02-06T02:03:02.808Z,0.00
2023-02-06T02:04:02.747Z,0.00
2023-02-06T02:05:02.782Z,0.00
2023-02-06T02:06:02.761Z,0.00
2023-02-06T02:07:02.768Z,0.00
2023-02-06T02:08:02.740Z,0.00
2023-02-06T02:09:02.697Z,0.00
2023-02-06T02:10:02.696Z,0.00
2023-02-06T02:11:02.696Z,0.00
2023-02-06T02:12:02.704Z,0.00
2023-02-06T02:13:02.696Z,0.00
2023-02-06T02:14:02.662Z,0.00
2023-02-06T02:15:02.689Z,0.00
2023-02-06T02:16:02.697Z,0.00
2023-02-06T02:17:02.674Z,0.00
2023-02-06T02:18:02.760Z,0.00
2023-02-06T02:19:02.619Z,0.00
2023-02-06T02:20:02.602Z,0.00
2023-02-06T02:21:02.602Z,0.00
2023-02-06T02:22:02.646Z,0.00
2023-02-06T02:23:02.594Z,0.00
2023-02-06T02:24:02.564Z,0.00
2023-02-06T02:25:02.576Z,0.00
2023-02-06T02:26:02.567Z,0.00
2023-02-06T02:27:02.564Z,0.00
2023-02-06T02:28:02.610Z,0.00
2023-02-06T02:29:02.529Z,0.00
2023-02-06T02:30:02.503Z,0.00
2023-02-06T02:31:02.513Z,0.00
2023-02-06T02:32:02.530Z,0.00
2023-02-06T02:33:02.520Z,0.00
2023-02-06T02:34:02.480Z,0.00
2023-02-06T02:35:02.463Z,0.00
2023-02-06T02:36:02.455Z,0.00
2023-02-06T02:37:02.543Z,0.00
2023-02-06T02:38:02.453Z,0.00
2023-02-06T02:39:03.134Z,0.00
2023-02-06T02:40:02.419Z,0.00
2023-02-06T02:41:03.076Z,0.00
2023-02-06T02:42:02.466Z,0.00
2023-02-06T02:43:02.445Z,0.00
2023-02-06T02:44:02.401Z,0.00
2023-02-06T02:45:03.063Z,0.00
2023-02-06T02:46:02.411Z,0.00
2023-02-06T02:47:02.554Z,0.00
2023-02-06T02:48:02.350Z,0.00
2023-02-06T02:49:03.033Z,0.00
2023-02-06T02:50:02.312Z,0.00
2023-02-06T02:51:02.374Z,0.00
2023-02-06T02:52:02.315Z,0.00
2023-02-06T02:53:02.474Z,0.00
2023-02-06T02:54:03.026Z,0.00
2023-02-06T02:55:02.316Z,0.00
2023-02-06T02:56:02.287Z,0.00
2023-02-06T02:57:02.331Z,0.00
2023-02-06T02:58:02.231Z,0.00
2023-02-06T02:59:02.258Z,0.00
2023-02-06T03:00:02.211Z,0.00
2023-02-06T03:01:02.327Z,0.00
2023-02-06T03:02:02.296Z,0.00
2023-02-06T03:03:02.229Z,0.00
2023-02-06T03:04:02.188Z,0.00
2023-02-06T03:05:02.195Z,0.00
2023-02-06T03:06:02.182Z,0.00
2023-02-06T03:07:02.204Z,0.00
2023-02-06T03:08:02.190Z,0.00
2023-02-06T03:09:02.152Z,0.00
2023-02-06T03:10:02.145Z,0.00
2023-02-06T03:11:02.136Z,0.00
2023-02-06T03:12:02.104Z,0.00
2023-02-06T03:13:02.139Z,0.00
2023-02-06T03:14:02.110Z,0.00
2023-02-06T03:15:02.109Z,0.00
2023-02-06T03:16:02.082Z,0.00
2023-02-06T03:17:02.066Z,0.00
2023-02-06T03:18:02.089Z,0.00
2023-02-06T03:19:02.082Z,0.00
2023-02-06T03:20:02.061Z,0.00
2023-02-06T03:21:02.012Z,0.00
2023-02-06T03:22:02.031Z,0.00
2023-02-06T03:23:02.044Z,0.00
2023-02-06T03:24:02.011Z,0.00
2023-02-06T03:25:02.013Z,0.00
2023-02-06T03:26:01.981Z,0.00
2023-02-06T03:27:01.982Z,0.00
2023-02-06T03:28:02.033Z,0.00
2023-02-06T03:29:01.951Z,0.00
2023-02-06T03:30:01.939Z,0.00
2023-02-06T03:31:01.958Z,0.00
2023-02-06T03:32:01.934Z,0.00
2023-02-06T03:33:01.913Z,0.00
2023-02-06T03:34:01.905Z,0.00
2023-02-06T03:35:01.905Z,0.00
2023-02-06T03:36:01.898Z,0.00
2023-02-06T03:37:01.862Z,0.00
2023-02-06T03:38:01.894Z,0.00
2023-02-06T03:39:01.846Z,0.00
2023-02-06T03:40:01.841Z,0.00
2023-02-06T03:41:01.847Z,0.00
2023-02-06T03:42:01.833Z,0.00
2023-02-06T03:43:01.844Z,0.00
2023-02-06T03:44:01.824Z,0.00
2023-02-06T03:45:01.810Z,0.00
2023-02-06T03:46:01.887Z,0.00
2023-02-06T03:47:01.806Z,0.00
2023-02-06T03:48:01.775Z,0.00
2023-02-06T03:49:01.757Z,0.00
2023-02-06T03:50:01.736Z,0.00
2023-02-06T03:51:01.748Z,0.00
2023-02-06T03:52:01.743Z,0.00
2023-02-06T03:53:01.785Z,0.00
2023-02-06T03:54:01.727Z,0.00
2023-02-06T03:55:01.729Z,0.00
2023-02-06T03:56:01.677Z,0.00
2023-02-06T03:57:01.697Z,0.00
2023-02-06T03:58:01.701Z,0.00
2023-02-06T03:59:01.651Z,0.00
2023-02-06T04:00:01.659Z,0.00
2023-02-06T04:01:01.707Z,0.00
2023-02-06T04:02:01.708Z,0.00
2023-02-06T04:03:01.676Z,0.00
2023-02-06T04:04:01.609Z,0.00
2023-02-06T04:05:01.614Z,0.00
2023-02-06T04:06:01.621Z,0.00
2023-02-06T04:07:01.580Z,0.00
2023-02-06T04:08:01.770Z,0.00
2023-02-06T04:09:01.578Z,0.00
2023-02-06T04:10:01.589Z,0.00
2023-02-06T04:11:01.553Z,0.00
2023-02-06T04:12:01.550Z,0.00
2023-02-06T04:13:01.569Z,0.00
2023-02-06T04:14:01.501Z,0.00
2023-02-06T04:15:01.570Z,0.00
2023-02-06T04:16:01.503Z,0.00
2023-02-06T04:17:01.500Z,0.00
2023-02-06T04:18:02.022Z,0.00
2023-02-06T04:19:01.512Z,0.00
2023-02-06T04:20:01.461Z,0.00
2023-02-06T04:21:01.472Z,0.00
2023-02-06T04:22:01.479Z,0.00
2023-02-06T04:23:01.447Z,0.00
2023-02-06T04:24:01.416Z,0.00
2023-02-06T04:25:01.433Z,0.00
2023-02-06T04:26:01.416Z,0.00
2023-02-06T04:27:01.395Z,0.00
2023-02-06T04:28:01.463Z,0.00
2023-02-06T04:29:01.410Z,0.00
2023-02-06T04:30:01.377Z,0.00
2023-02-06T04:31:01.407Z,0.00
2023-02-06T04:32:01.373Z,0.00
2023-02-06T04:33:01.335Z,0.00
2023-02-06T04:34:01.340Z,0.00
2023-02-06T04:35:01.342Z,0.00
2023-02-06T04:36:01.327Z,0.00
2023-02-06T04:37:01.346Z,0.00
2023-02-06T04:38:01.324Z,0.00
2023-02-06T04:39:01.277Z,0.00
2023-02-06T04:40:01.279Z,0.00
2023-02-06T04:41:01.274Z,0.00
2023-02-06T04:42:01.240Z,0.00
2023-02-06T04:43:01.256Z,0.00
2023-02-06T04:44:01.225Z,0.00
2023-02-06T04:45:01.263Z,0.00
2023-02-06T04:46:01.250Z,0.00
2023-02-06T04:47:01.227Z,0.00
2023-02-06T04:48:01.239Z,0.00
2023-02-06T04:49:01.206Z,0.00
2023-02-06T04:50:01.191Z,0.00
2023-02-06T04:51:01.193Z,0.00
2023-02-06T04:52:01.151Z,0.00
2023-02-06T04:53:01.186Z,0.00
2023-02-06T04:54:01.154Z,0.00
2023-02-06T04:55:01.146Z,0.00
2023-02-06T04:56:01.110Z,0.00
2023-02-06T04:57:01.097Z,0.00
2023-02-06T04:58:01.077Z,0.00
2023-02-06T04:59:01.135Z,0.00
2023-02-06T05:00:01.080Z,0.00
2023-02-06T05:01:01.082Z,0.00
2023-02-06T05:02:01.048Z,0.00
2023-02-06T05:03:01.094Z,0.00
2023-02-06T05:04:01.067Z,0.00
2023-02-06T05:05:01.070Z,0.00
2023-02-06T05:06:01.029Z,0.00
2023-02-06T05:07:01.002Z,0.00
2023-02-06T05:08:01.040Z,0.00
2023-02-06T05:09:01.000Z,0.00
2023-02-06T05:10:00.981Z,0.00
2023-02-06T05:11:00.950Z,0.00
2023-02-06T05:12:00.969Z,0.00
2023-02-06T05:13:00.938Z,0.00
2023-02-06T05:14:00.977Z,0.00
2023-02-06T05:15:00.920Z,0.00
2023-02-06T05:16:00.961Z,0.00
2023-02-06T05:17:00.903Z,0.00
2023-02-06T05:18:00.898Z,0.00
2023-02-06T05:19:00.925Z,0.00
2023-02-06T05:20:00.886Z,0.00
2023-02-06T05:21:00.860Z,0.00
2023-02-06T05:22:00.871Z,0.00
2023-02-06T05:23:00.843Z,0.00
2023-02-06T05:24:00.878Z,0.00
2023-02-06T05:25:00.880Z,0.00
2023-02-06T05:26:00.829Z,0.00
2023-02-06T05:27:00.799Z,0.00
2023-02-06T05:28:00.802Z,0.00
2023-02-06T05:29:00.841Z,0.00
2023-02-06T05:30:00.814Z,0.00
2023-02-06T05:31:00.829Z,0.00
2023-02-06T05:32:00.750Z,0.00
2023-02-06T05:33:00.750Z,0.00
2023-02-06T05:34:00.751Z,0.00
2023-02-06T05:35:00.760Z,0.00
2023-02-06T05:36:00.711Z,0.00
2023-02-06T05:37:00.700Z,0.00
2023-02-06T05:38:00.679Z,1.00
2023-02-06T05:39:00.753Z,0.00
2023-02-06T05:40:00.701Z,0.00
2023-02-06T05:41:00.669Z,0.00
2023-02-06T05:42:01.637Z,0.00
2023-02-06T05:43:00.667Z,0.00
2023-02-06T05:44:00.655Z,0.00
2023-02-06T05:45:00.671Z,0.00
2023-02-06T05:46:00.697Z,0.00
2023-02-06T05:47:00.614Z,0.00
2023-02-06T05:48:00.594Z,0.00
2023-02-06T05:49:00.671Z,0.00
2023-02-06T05:50:00.650Z,0.00
2023-02-06T05:51:00.568Z,0.00
2023-02-06T05:52:00.565Z,0.00
2023-02-06T05:53:00.578Z,0.00
2023-02-06T05:54:00.588Z,0.00
2023-02-06T05:55:00.558Z,0.00
2023-02-06T05:56:00.607Z,0.00
2023-02-06T05:57:00.743Z,0.00
2023-02-06T05:58:00.505Z,0.00
2023-02-06T05:59:00.645Z,0.00
2023-02-06T06:00:00.559Z,0.00
2023-02-06T06:01:00.660Z,0.00
2023-02-06T06:02:00.490Z,0.00
2023-02-06T06:03:00.732Z,0.00
2023-02-06T06:04:00.558Z,1.00
2023-02-06T06:05:01.530Z,0.00
2023-02-06T06:06:01.199Z,0.00
2023-02-06T06:07:00.642Z,0.00
2023-02-06T06:08:00.493Z,0.00
2023-02-06T06:09:00.587Z,0.00
2023-02-06T06:10:00.433Z,0.00
2023-02-06T06:11:02.147Z,0.00
2023-02-06T06:12:00.330Z,1.00
2023-02-06T06:13:00.325Z,1.00
2023-02-06T06:14:00.312Z,1.00
2023-02-06T06:15:00.316Z,1.00
2023-02-06T06:16:00.340Z,2.00
2023-02-06T06:17:00.351Z,0.00
2023-02-06T06:18:00.281Z,2.00
2023-02-06T06:19:00.251Z,1.00
2023-02-06T06:20:00.281Z,1.00
2023-02-06T06:21:00.293Z,2.00
2023-02-06T06:22:00.244Z,2.00
2023-02-06T06:23:00.233Z,1.00
2023-02-06T06:24:00.385Z,3.00
2023-02-06T06:25:00.240Z,5.00
2023-02-06T06:26:00.212Z,4.00
2023-02-06T06:27:00.228Z,4.00
2023-02-06T06:28:00.215Z,2.00
2023-02-06T06:29:00.206Z,7.00
2023-02-06T06:30:00.181Z,8.00
2023-02-06T06:31:00.273Z,8.00
2023-02-06T06:32:00.236Z,10.00
2023-02-06T06:33:00.131Z,12.00
2023-02-06T06:34:00.126Z,15.00
2023-02-06T06:35:00.137Z,15.00
2023-02-06T06:36:00.106Z,15.00
2023-02-06T06:37:00.129Z,19.00
2023-02-06T06:38:00.121Z,21.00
2023-02-06T06:39:00.116Z,23.00
2023-02-06T06:40:00.101Z,30.00
2023-02-06T06:41:00.067Z,29.00
2023-02-06T06:42:00.083Z,35.00
2023-02-06T06:43:00.041Z,37.00
2023-02-06T06:44:00.014Z,41.00
2023-02-06T06:45:00.022Z,44.00
2023-02-06T06:46:00.000Z,48.00
2023-02-06T06:46:59.995Z,52.00
2023-02-06T06:47:59.982Z,61.00
2023-02-06T06:49:00.011Z,61.00
2023-02-06T06:49:59.945Z,65.00
2023-02-06T06:50:59.954Z,74.00
2023-02-06T06:51:59.948Z,78.00
2023-02-06T06:52:59.913Z,82.00
2023-02-06T06:53:59.942Z,85.00
2023-02-06T06:54:59.921Z,85.00
2023-02-06T06:55:59.934Z,97.00
2023-02-06T06:56:59.898Z,103.00
2023-02-06T06:57:59.892Z,115.00
2023-02-06T06:58:59.878Z,123.00
2023-02-06T06:59:59.906Z,130.00
2023-02-06T07:00:59.898Z,132.00
2023-02-06T07:01:59.874Z,139.00
2023-02-06T07:02:59.897Z,144.00
2023-02-06T07:03:59.855Z,151.00
2023-02-06T07:04:59.844Z,160.00
2023-02-06T07:05:59.828Z,169.00
2023-02-06T07:06:59.798Z,172.00
2023-02-06T07:07:59.851Z,182.00
2023-02-06T07:08:59.787Z,197.00
2023-02-06T07:09:59.773Z,208.00
2023-02-06T07:10:59.779Z,214.00
2023-02-06T07:11:59.784Z,228.00
2023-02-06T07:12:59.760Z,244.00
2023-02-06T07:13:59.717Z,257.00
2023-02-06T07:14:59.747Z,266.00
2023-02-06T07:15:59.695Z,287.00
2023-02-06T07:16:59.716Z,304.00
2023-02-06T07:17:59.708Z,320.00
2023-02-06T07:18:59.677Z,324.00
2023-02-06T07:19:59.724Z,332.00
2023-02-06T07:20:59.657Z,345.00
2023-02-06T07:21:59.681Z,388.00
2023-02-06T07:22:59.648Z,412.00
2023-02-06T07:23:59.660Z,442.00
2023-02-06T07:24:59.606Z,488.00
2023-02-06T07:25:59.598Z,495.00
2023-02-06T07:26:59.647Z,504.00
2023-02-06T07:27:59.630Z,508.00
2023-02-06T07:28:59.602Z,500.00
2023-02-06T07:29:59.582Z,510.00
2023-02-06T07:30:59.566Z,526.00
2023-02-06T07:31:59.668Z,568.00
2023-02-06T07:32:59.561Z,603.00
2023-02-06T07:33:59.552Z,627.00
2023-02-06T07:34:59.542Z,637.00
2023-02-06T07:36:01.158Z,650.00
2023-02-06T07:36:59.512Z,682.00
2023-02-06T07:37:59.489Z,738.00
2023-02-06T07:38:59.549Z,789.00
2023-02-06T07:39:59.485Z,861.00
2023-02-06T07:40:59.468Z,895.00
2023-02-06T07:41:59.489Z,923.00
2023-02-06T07:42:59.466Z,1015.00
2023-02-06T07:43:59.459Z,1127.00
2023-02-06T07:44:59.418Z,1136.00
2023-02-06T07:45:59.497Z,1174.00
2023-02-06T07:46:59.419Z,1253.00
2023-02-06T07:47:59.464Z,1327.00
2023-02-06T07:48:59.394Z,1322.00
2023-02-06T07:49:59.401Z,1275.00
2023-02-06T07:50:59.390Z,1229.00
2023-02-06T07:51:59.415Z,1286.00
2023-02-06T07:52:59.348Z,1379.00
2023-02-06T07:53:59.356Z,1440.00
2023-02-06T07:54:59.339Z,1435.00
2023-02-06T07:55:59.314Z,1418.00
2023-02-06T07:56:59.299Z,1456.00
2023-02-06T07:57:59.310Z,1548.00
2023-02-06T07:58:59.322Z,1662.00
2023-02-06T07:59:59.295Z,1773.00
2023-02-06T08:00:59.307Z,1866.00
2023-02-06T08:01:59.248Z,1831.00
2023-02-06T08:02:59.254Z,1672.00
2023-02-06T08:03:59.295Z,1549.00
2023-02-06T08:04:59.313Z,1440.00
2023-02-06T08:05:59.251Z,1309.00
2023-02-06T08:06:59.230Z,1206.00
2023-02-06T08:07:59.241Z,1126.00
2023-02-06T08:08:59.209Z,1008.00
2023-02-06T08:09:59.178Z,845.00
2023-02-06T08:10:59.160Z,861.00
2023-02-06T08:11:59.205Z,1096.00
2023-02-06T08:12:59.190Z,1536.00
2023-02-06T08:13:59.168Z,1969.00
2023-02-06T08:14:59.122Z,2168.00
2023-02-06T08:15:59.168Z,2144.00
2023-02-06T08:16:59.125Z,2023.00
2023-02-06T08:17:59.121Z,1911.00
2023-02-06T08:18:59.082Z,1917.00
2023-02-06T08:19:59.070Z,1823.00
2023-02-06T08:20:59.070Z,1750.00
2023-02-06T08:21:59.075Z,1640.00
2023-02-06T08:22:59.098Z,1571.00
2023-02-06T08:23:59.050Z,1685.00
2023-02-06T08:24:59.052Z,1514.00
2023-02-06T08:25:59.044Z,1396.00
2023-02-06T08:26:59.035Z,1490.00
2023-02-06T08:27:59.047Z,1498.00
2023-02-06T08:28:59.013Z,1503.00
2023-02-06T08:29:58.992Z,1608.00
2023-02-06T08:30:59.121Z,1751.00
2023-02-06T08:31:58.991Z,1990.00
2023-02-06T08:32:59.012Z,2088.00
2023-02-06T08:33:58.950Z,2015.00
2023-02-06T08:34:58.942Z,1896.00
2023-02-06T08:35:58.931Z,1881.00
2023-02-06T08:36:58.927Z,2058.00
2023-02-06T08:37:58.924Z,2168.00
2023-02-06T08:38:58.912Z,2099.00
2023-02-06T08:39:58.897Z,1992.00
2023-02-06T08:40:58.930Z,1917.00
2023-02-06T08:41:58.871Z,1920.00
2023-02-06T08:42:58.922Z,2059.00
2023-02-06T08:43:58.892Z,1986.00
2023-02-06T08:44:58.873Z,1807.00
2023-02-06T08:45:58.930Z,1666.00
2023-02-06T08:47:09.273Z,1585.00
2023-02-06T08:47:59.817Z,1593.00
2023-02-06T08:48:58.836Z,1482.00
2023-02-06T08:50:00.102Z,1611.00
2023-02-06T08:50:58.791Z,1912.00
2023-02-06T08:51:58.798Z,1971.00
2023-02-06T08:52:58.796Z,1715.00
2023-02-06T08:53:58.762Z,1649.00
2023-02-06T08:54:58.735Z,2020.00
2023-02-06T08:55:58.735Z,2208.00
2023-02-06T08:56:58.717Z,2185.00
2023-02-06T08:57:58.735Z,2194.00
2023-02-06T08:58:58.716Z,2215.00
2023-02-06T08:59:58.707Z,2325.00
2023-02-06T09:00:58.676Z,2338.00
2023-02-06T09:01:58.702Z,2075.00
2023-02-06T09:02:58.705Z,2342.00
2023-02-06T09:03:58.659Z,2633.00
2023-02-06T09:04:58.717Z,2534.00
2023-02-06T09:06:05.614Z,2622.00
2023-02-06T09:06:59.636Z,2903.00
2023-02-06T09:07:58.609Z,2402.00
2023-02-06T09:08:58.691Z,2117.00
2023-02-06T09:09:58.661Z,1988.00
2023-02-06T09:10:58.569Z,1990.00
2023-02-06T09:11:58.619Z,2203.00
2023-02-06T09:12:58.587Z,2022.00
2023-02-06T09:13:58.593Z,1664.00
2023-02-06T09:14:58.554Z,1760.00
2023-02-06T09:15:58.587Z,1992.00
2023-02-06T09:16:58.524Z,2102.00
2023-02-06T09:17:58.522Z,2145.00
2023-02-06T09:18:58.485Z,1720.00
2023-02-06T09:19:58.508Z,1341.00
2023-02-06T09:20:58.496Z,1461.00
2023-02-06T09:21:58.488Z,1562.00
2023-02-06T09:22:58.506Z,1628.00
2023-02-06T09:23:58.492Z,1446.00
2023-02-06T09:24:58.443Z,1260.00
2023-02-06T09:25:58.461Z,1089.00
2023-02-06T09:27:00.306Z,1030.00
2023-02-06T09:27:58.424Z,1016.00
2023-02-06T09:28:58.394Z,1095.00
2023-02-06T09:29:58.395Z,1118.00
2023-02-06T09:30:58.616Z,1112.00
2023-02-06T09:31:58.400Z,1158.00
2023-02-06T09:32:58.375Z,1108.00
2023-02-06T09:33:58.369Z,1128.00
2023-02-06T09:34:58.347Z,1180.00
2023-02-06T09:35:58.473Z,1173.00
2023-02-06T09:36:58.307Z,1178.00
2023-02-06T09:37:58.302Z,1123.00
2023-02-06T09:38:58.413Z,1160.00
2023-02-06T09:39:58.304Z,1147.00
2023-02-06T09:40:58.303Z,1115.00
2023-02-06T09:41:58.294Z,1159.00
2023-02-06T09:42:58.278Z,1111.00
2023-02-06T09:43:58.270Z,1125.00
2023-02-06T09:44:58.244Z,1144.00
2023-02-06T09:45:58.249Z,1257.00
2023-02-06T09:46:58.229Z,1236.00
2023-02-06T09:47:58.232Z,1174.00
2023-02-06T09:48:58.212Z,1294.00
2023-02-06T09:49:58.233Z,1235.00
2023-02-06T09:50:58.192Z,1188.00
2023-02-06T09:51:58.185Z,1148.00
2023-02-06T09:52:58.162Z,1146.00
2023-02-06T09:53:58.173Z,1214.00
2023-02-06T09:54:58.168Z,1161.00
2023-02-06T09:55:58.122Z,1139.00
2023-02-06T09:56:58.147Z,1189.00
2023-02-06T09:57:58.104Z,1138.00
2023-02-06T09:58:58.120Z,1109.00
2023-02-06T09:59:58.136Z,1089.00
2023-02-06T10:00:58.097Z,1012.00
2023-02-06T10:01:58.090Z,1121.00
2023-02-06T10:02:58.086Z,1211.00
2023-02-06T10:03:58.107Z,1018.00
2023-02-06T10:04:58.093Z,956.00
2023-02-06T10:05:58.053Z,1079.00
2023-02-06T10:06:58.060Z,1003.00
2023-02-06T10:07:58.014Z,978.00
2023-02-06T10:08:57.992Z,1036.00
2023-02-06T10:09:58.016Z,1049.00
2023-02-06T10:10:57.986Z,1127.00
2023-02-06T10:11:57.995Z,1134.00
2023-02-06T10:12:57.998Z,1073.00
2023-02-06T10:13:57.957Z,1229.00
2023-02-06T10:14:58.011Z,1222.00
2023-02-06T10:15:57.984Z,1325.00
2023-02-06T10:16:57.915Z,1464.00
2023-02-06T10:17:57.924Z,1334.00
2023-02-06T10:18:57.922Z,1325.00
2023-02-06T10:19:57.900Z,1515.00
2023-02-06T10:20:57.904Z,1312.00
2023-02-06T10:21:57.872Z,1630.00
2023-02-06T10:22:57.859Z,2014.00
2023-02-06T10:23:57.847Z,1726.00
2023-02-06T10:24:57.881Z,2147.00
2023-02-06T10:25:57.891Z,2267.00
2023-02-06T10:26:57.812Z,1990.00
2023-02-06T10:27:57.843Z,2375.00
2023-02-06T10:28:57.809Z,2098.00
2023-02-06T10:29:57.832Z,1836.00
2023-02-06T10:30:57.885Z,1971.00
2023-02-06T10:31:57.802Z,1939.00
2023-02-06T10:32:57.791Z,2046.00
2023-02-06T10:33:57.770Z,2012.00
2023-02-06T10:34:57.742Z,2106.00
2023-02-06T10:35:57.744Z,2137.00
2023-02-06T10:36:57.739Z,2505.00
2023-02-06T10:37:57.726Z,2827.00
2023-02-06T10:38:57.748Z,2637.00
2023-02-06T10:39:57.694Z,2788.00
2023-02-06T10:40:57.718Z,2583.00
2023-02-06T10:41:57.751Z,2265.00
2023-02-06T10:42:57.700Z,1928.00
2023-02-06T10:43:57.685Z,1836.00
2023-02-06T10:45:06.582Z,1611.00
2023-02-06T10:45:58.809Z,1602.00
2023-02-06T10:46:57.696Z,1383.00
2023-02-06T10:47:57.681Z,1494.00
2023-02-06T10:48:57.652Z,1496.00
2023-02-06T10:49:57.640Z,1620.00
2023-02-06T10:50:57.640Z,1518.00
2023-02-06T10:51:57.604Z,1447.00
2023-02-06T10:52:57.596Z,1535.00
2023-02-06T10:53:57.564Z,1738.00
2023-02-06T10:54:57.588Z,1769.00
2023-02-06T10:55:57.552Z,2389.00
2023-02-06T10:56:57.554Z,2304.00
2023-02-06T10:57:57.599Z,2110.00
2023-02-06T10:58:57.539Z,2370.00
2023-02-06T10:59:57.511Z,2087.00
2023-02-06T11:00:57.535Z,2193.00
2023-02-06T11:01:58.651Z,2176.00
2023-02-06T11:03:07.190Z,2006.00
2023-02-06T11:03:58.509Z,1959.00
2023-02-06T11:04:57.473Z,2253.00
2023-02-06T11:05:57.445Z,2098.00
2023-02-06T11:06:57.466Z,1804.00
2023-02-06T11:07:57.475Z,2297.00
2023-02-06T11:08:57.435Z,2400.00
2023-02-06T11:09:57.417Z,2255.00
2023-02-06T11:10:57.395Z,2309.00
2023-02-06T11:11:57.438Z,2441.00
2023-02-06T11:12:57.387Z,2219.00
2023-02-06T11:13:57.380Z,2283.00
2023-02-06T11:14:57.387Z,1949.00
2023-02-06T11:15:57.426Z,1575.00
2023-02-06T11:16:57.336Z,1498.00
2023-02-06T11:17:57.345Z,2069.00
2023-02-06T11:18:57.329Z,1996.00
2023-02-06T11:19:57.337Z,1994.00
2023-02-06T11:20:57.339Z,2218.00
2023-02-06T11:21:57.276Z,1549.00
2023-02-06T11:22:57.297Z,1768.00
2023-02-06T11:23:57.288Z,2113.00
2023-02-06T11:24:57.270Z,2342.00
2023-02-06T11:25:57.286Z,2250.00
2023-02-06T11:26:57.257Z,2797.00
2023-02-06T11:27:57.270Z,2245.00
2023-02-06T11:28:57.247Z,2365.00
2023-02-06T11:29:57.201Z,2367.00
2023-02-06T11:30:57.244Z,2578.00
2023-02-06T11:31:57.268Z,3155.00
2023-02-06T11:33:04.386Z,2648.00
2023-02-06T11:33:58.196Z,2448.00
2023-02-06T11:34:57.179Z,2466.00
2023-02-06T11:35:57.158Z,2298.00
2023-02-06T11:36:57.174Z,1869.00
2023-02-06T11:37:57.126Z,2313.00
2023-02-06T11:38:57.195Z,2913.00
2023-02-06T11:39:57.099Z,2730.00
2023-02-06T11:40:57.126Z,2153.00
2023-02-06T11:41:57.086Z,2252.00
2023-02-06T11:42:57.098Z,2173.00
2023-02-06T11:43:57.128Z,2121.00
2023-02-06T11:44:57.088Z,2026.00
2023-02-06T11:45:57.052Z,2465.00
2023-02-06T11:46:57.097Z,2846.00
2023-02-06T11:47:57.018Z,2786.00
2023-02-06T11:48:57.036Z,2923.00
2023-02-06T11:49:57.028Z,2838.00
2023-02-06T11:50:57.065Z,2339.00
2023-02-06T11:51:56.983Z,2415.00
2023-02-06T11:52:56.990Z,2645.00
2023-02-06T11:53:57.009Z,2670.00
2023-02-06T11:54:57.008Z,3710.00
2023-02-06T11:55:56.969Z,3450.00
2023-02-06T11:56:56.955Z,2867.00
2023-02-06T11:57:56.930Z,2296.00
2023-02-06T11:58:56.940Z,2754.00
2023-02-06T11:59:56.934Z,3618.00
2023-02-06T12:00:56.893Z,4318.00
2023-02-06T12:01:56.898Z,3619.00
2023-02-06T12:02:56.923Z,3067.00
2023-02-06T12:03:56.881Z,3306.00
2023-02-06T12:04:56.880Z,3651.00
2023-02-06T12:05:59.009Z,4587.00
2023-02-06T12:06:56.875Z,4122.00
2023-02-06T12:07:56.839Z,3237.00
2023-02-06T12:08:56.832Z,2392.00
2023-02-06T12:09:56.845Z,2776.00
2023-02-06T12:10:56.791Z,3396.00
2023-02-06T12:11:56.817Z,3440.00
2023-02-06T12:12:56.881Z,3857.00
2023-02-06T12:13:56.813Z,4344.00
2023-02-06T12:14:56.803Z,3540.00
2023-02-06T12:15:56.749Z,3341.00
2023-02-06T12:16:56.752Z,2741.00
2023-02-06T12:17:56.747Z,3059.00
2023-02-06T12:18:56.713Z,2462.00
2023-02-06T12:19:56.743Z,1932.00
2023-02-06T12:20:56.693Z,2350.00
2023-02-06T12:21:56.751Z,2246.00
2023-02-06T12:22:56.697Z,3163.00
2023-02-06T12:23:56.697Z,3515.00
2023-02-06T12:24:56.682Z,3355.00
2023-02-06T12:25:56.649Z,2567.00
2023-02-06T12:26:56.639Z,2174.00
2023-02-06T12:27:56.683Z,2109.00
2023-02-06T12:28:56.642Z,2305.00
2023-02-06T12:29:56.619Z,2254.00
2023-02-06T12:30:56.742Z,2222.00
2023-02-06T12:31:56.704Z,2181.00
2023-02-06T12:32:56.613Z,2294.00
2023-02-06T12:33:56.586Z,2718.00
2023-02-06T12:34:56.601Z,2861.00
2023-02-06T12:35:56.564Z,2958.00
2023-02-06T12:36:56.530Z,3111.00
2023-02-06T12:37:56.526Z,3238.00
2023-02-06T12:38:56.529Z,2944.00
2023-02-06T12:39:56.538Z,2481.00
2023-02-06T12:40:56.511Z,2254.00
2023-02-06T12:41:56.510Z,2154.00
2023-02-06T12:42:56.502Z,2547.00
2023-02-06T12:43:56.509Z,2750.00
2023-02-06T12:44:56.462Z,2452.00